createdAt,value
2024-02-14T00:01:20.642Z,4.50
2024-02-14T00:03:49.869Z,5.03
2024-02-14T00:06:19.101Z,4.65
2024-02-14T00:08:48.217Z,5.07
2024-02-14T00:11:19.283Z,4.65
2024-02-14T00:13:48.294Z,5.28
2024-02-14T00:16:17.315Z,4.65
2024-02-14T00:18:46.464Z,4.20
2024-02-14T00:21:15.677Z,4.47
2024-02-14T00:23:45.667Z,4.75
2024-02-14T00:26:15.062Z,4.45
2024-02-14T00:28:45.813Z,4.53
2024-02-14T00:31:14.890Z,4.18
2024-02-14T00:33:44.171Z,4.20
2024-02-14T00:36:13.294Z,5.15
2024-02-14T00:38:42.453Z,4.95
2024-02-14T00:41:13.604Z,4.63
2024-02-14T00:43:42.587Z,3.95
2024-02-14T00:46:19.332Z,3.50
2024-02-14T00:48:48.524Z,3.92
2024-02-14T00:51:17.605Z,3.97
2024-02-14T00:53:46.898Z,3.83
2024-02-14T00:56:15.877Z,4.10
2024-02-14T00:58:44.843Z,3.78
2024-02-14T01:01:15.593Z,3.60
2024-02-14T01:03:44.673Z,3.80
2024-02-14T01:06:13.896Z,3.65
2024-02-14T01:08:43.517Z,3.53
2024-02-14T01:11:12.942Z,3.22
2024-02-14T01:14:26.672Z,3.72
2024-02-14T01:16:58.359Z,3.22
2024-02-14T01:19:30.558Z,3.40
2024-02-14T01:21:59.603Z,3.03
2024-02-14T01:24:29.517Z,3.10
2024-02-14T01:26:58.695Z,3.10
2024-02-14T01:29:27.876Z,3.15
2024-02-14T01:31:58.521Z,3.17
2024-02-14T01:34:27.712Z,3.05
2024-02-14T01:36:56.868Z,2.72
2024-02-14T01:39:25.893Z,3.15
2024-02-14T01:41:55.109Z,3.00
2024-02-14T01:44:24.286Z,3.15
2024-02-14T01:46:55.014Z,3.05
2024-02-14T01:49:25.825Z,3.30
2024-02-14T01:51:55.014Z,3.10
2024-02-14T01:54:24.190Z,2.88
2024-02-14T01:56:53.254Z,3.17
2024-02-14T01:59:22.885Z,2.83
2024-02-14T02:01:53.561Z,3.13
2024-02-14T02:04:23.046Z,3.25
2024-02-14T02:06:58.271Z,3.30
2024-02-14T02:09:27.329Z,2.97
2024-02-14T02:11:58.018Z,2.97
2024-02-14T02:14:28.157Z,3.05
2024-02-14T02:16:57.337Z,3.13
2024-02-14T02:19:26.490Z,2.90
2024-02-14T02:21:57.233Z,3.08
2024-02-14T02:24:27.886Z,3.10
2024-02-14T02:26:58.847Z,3.38
2024-02-14T02:29:27.912Z,3.20
2024-02-14T02:31:56.940Z,3.47
2024-02-14T02:34:26.154Z,3.38
2024-02-14T02:36:55.249Z,3.40
2024-02-14T02:39:24.239Z,3.45
2024-02-14T02:41:57.342Z,3.20
2024-02-14T02:44:26.400Z,3.63
2024-02-14T02:46:55.413Z,3.45
2024-02-14T02:49:24.510Z,3.28
2024-02-14T02:51:54.265Z,3.10
2024-02-14T02:54:25.321Z,3.42
2024-02-14T02:56:55.973Z,3.20
2024-02-14T02:59:25.504Z,3.30
2024-02-14T03:01:54.575Z,3.22
2024-02-14T03:04:30.757Z,3.72
2024-02-14T03:07:10.682Z,4.72
2024-02-14T03:09:40.597Z,6.10
2024-02-14T03:12:12.855Z,5.85
2024-02-14T03:14:42.908Z,5.53
2024-02-14T03:17:12.060Z,6.05
2024-02-14T03:19:42.558Z,6.03
2024-02-14T03:22:12.120Z,5.65
2024-02-14T03:24:41.117Z,5.93
2024-02-14T03:27:11.905Z,6.03
2024-02-14T03:29:41.107Z,5.68
2024-02-14T03:32:10.472Z,5.95
2024-02-14T03:34:39.657Z,5.28
2024-02-14T03:37:09.114Z,6.00
2024-02-14T03:39:38.695Z,5.88
2024-02-14T03:42:09.538Z,5.38
2024-02-14T03:44:40.293Z,5.15
2024-02-14T03:47:09.349Z,5.07
2024-02-14T03:49:38.371Z,5.10
2024-02-14T03:52:11.753Z,5.38
2024-02-14T03:54:40.832Z,5.03
2024-02-14T03:57:10.501Z,5.22
2024-02-14T03:59:42.099Z,5.63
2024-02-14T04:02:11.780Z,5.53
2024-02-14T04:04:41.576Z,5.45
2024-02-14T04:07:10.990Z,6.00
2024-02-14T04:09:40.286Z,5.65
2024-02-14T04:12:12.024Z,6.13
2024-02-14T04:14:42.790Z,5.70
2024-02-14T04:17:13.522Z,6.10
2024-02-14T04:19:42.775Z,6.03
2024-02-14T04:22:11.870Z,6.00
2024-02-14T04:24:41.027Z,6.68
2024-02-14T04:27:10.168Z,6.18
2024-02-14T04:29:39.322Z,6.75
2024-02-14T04:32:10.725Z,6.03
2024-02-14T04:34:41.665Z,6.53
2024-02-14T04:37:14.537Z,6.25
2024-02-14T04:39:44.275Z,6.25
2024-02-14T04:42:14.234Z,5.95
2024-02-14T04:44:43.343Z,6.47
2024-02-14T04:47:13.988Z,6.55
2024-02-14T04:49:43.527Z,7.00
2024-02-14T04:52:12.527Z,7.10
2024-02-14T04:54:41.549Z,6.85
2024-02-14T04:57:10.683Z,6.88
2024-02-14T04:59:39.739Z,6.47
2024-02-14T05:02:08.978Z,6.85
2024-02-14T05:04:41.160Z,7.93
2024-02-14T05:07:10.691Z,7.70
2024-02-14T05:09:39.776Z,7.97
2024-02-14T05:12:12.551Z,8.10
2024-02-14T05:14:42.345Z,8.70
2024-02-14T05:17:11.426Z,8.82
2024-02-14T05:19:45.102Z,8.48
2024-02-14T05:22:14.303Z,8.45
2024-02-14T05:24:43.304Z,9.70
2024-02-14T05:27:12.716Z,9.18
2024-02-14T05:29:41.822Z,9.32
2024-02-14T05:32:13.761Z,9.32
2024-02-14T05:34:44.432Z,9.88
2024-02-14T05:37:13.432Z,9.00
2024-02-14T05:39:43.092Z,9.18
2024-02-14T05:42:12.209Z,8.80
2024-02-14T05:44:42.417Z,8.50
2024-02-14T05:47:13.553Z,8.57
2024-02-14T05:49:44.467Z,8.63
2024-02-14T05:52:13.566Z,8.60
2024-02-14T05:54:42.549Z,8.40
2024-02-14T05:57:11.655Z,8.55
2024-02-14T05:59:40.713Z,8.40
2024-02-14T06:02:11.711Z,7.80
2024-02-14T06:04:40.787Z,7.70
2024-02-14T06:07:13.460Z,8.05
2024-02-14T06:09:42.596Z,8.35
2024-02-14T06:12:11.641Z,7.53
2024-02-14T06:14:41.364Z,7.50
2024-02-14T06:17:10.377Z,7.88
2024-02-14T06:19:41.286Z,8.10
2024-02-14T06:22:12.727Z,8.90
2024-02-14T06:24:41.855Z,8.82
2024-02-14T06:27:11.004Z,8.18
2024-02-14T06:29:40.143Z,8.93
2024-02-14T06:32:09.551Z,8.07
2024-02-14T06:34:38.810Z,8.57
2024-02-14T06:37:08.052Z,8.85
2024-02-14T06:39:39.029Z,8.77
2024-02-14T06:42:08.557Z,8.82
2024-02-14T06:44:37.592Z,8.80
2024-02-14T06:47:06.894Z,8.70
2024-02-14T06:49:35.986Z,9.48
2024-02-14T06:52:05.264Z,9.25
2024-02-14T06:54:34.498Z,9.18
2024-02-14T06:57:05.408Z,9.40
2024-02-14T06:59:34.460Z,9.27
2024-02-14T07:02:13.022Z,9.35
2024-02-14T07:04:43.245Z,9.45
2024-02-14T07:07:12.825Z,9.45
2024-02-14T07:09:41.842Z,10.18
2024-02-14T07:12:12.646Z,9.73
2024-02-14T07:14:41.779Z,9.27
2024-02-14T07:17:10.854Z,10.35
2024-02-14T07:19:40.707Z,10.68
2024-02-14T07:22:11.402Z,10.43
2024-02-14T07:24:40.506Z,11.30
2024-02-14T07:27:11.147Z,10.55
2024-02-14T07:29:42.933Z,10.30
2024-02-14T07:32:12.031Z,10.55
2024-02-14T07:34:42.322Z,10.70
2024-02-14T07:37:11.566Z,10.45
2024-02-14T07:39:40.593Z,10.32
2024-02-14T07:42:09.770Z,10.77
2024-02-14T07:44:38.870Z,11.00
2024-02-14T07:47:09.640Z,11.05
2024-02-14T07:49:38.757Z,11.20
2024-02-14T07:52:08.607Z,10.30
2024-02-14T07:54:37.805Z,10.70
2024-02-14T07:57:07.447Z,10.98
2024-02-14T07:59:36.461Z,11.07
2024-02-14T08:02:05.669Z,10.73
2024-02-14T08:04:36.405Z,10.98
2024-02-14T08:07:05.851Z,11.75
2024-02-14T08:09:35.189Z,11.38
2024-02-14T08:12:04.518Z,11.75
2024-02-14T08:14:33.725Z,11.85
2024-02-14T08:17:02.844Z,11.80
2024-02-14T08:19:31.992Z,10.77
2024-02-14T08:22:03.367Z,11.52
2024-02-14T08:24:32.345Z,11.73
2024-02-14T08:27:01.517Z,11.88
2024-02-14T08:29:30.634Z,12.35
2024-02-14T08:31:59.646Z,12.38
2024-02-14T08:34:28.888Z,11.95
2024-02-14T08:36:58.263Z,12.15
2024-02-14T08:39:28.965Z,12.30
2024-02-14T08:41:58.061Z,10.95
2024-02-14T08:44:27.108Z,11.18
2024-02-14T08:46:56.749Z,11.80
2024-02-14T08:49:25.875Z,12.05
2024-02-14T08:51:54.958Z,11.63
2024-02-14T08:54:25.140Z,11.70
2024-02-14T08:56:57.875Z,10.75
2024-02-14T08:59:26.881Z,12.05
2024-02-14T09:01:55.963Z,10.68
2024-02-14T09:04:25.457Z,11.30
2024-02-14T09:06:54.517Z,11.23
2024-02-14T09:09:23.741Z,11.63
2024-02-14T09:11:52.936Z,11.38
2024-02-14T09:14:26.871Z,10.45
2024-02-14T09:16:56.061Z,10.75
2024-02-14T09:19:25.323Z,10.75
2024-02-14T09:21:54.385Z,10.77
2024-02-14T09:24:23.432Z,10.48
2024-02-14T09:26:52.469Z,10.95
2024-02-14T09:29:23.141Z,10.07
2024-02-14T09:31:53.538Z,10.88
2024-02-14T09:34:24.015Z,10.95
2024-02-14T09:36:55.366Z,11.23
2024-02-14T09:39:24.429Z,11.02
2024-02-14T09:41:57.294Z,11.07
2024-02-14T09:44:30.503Z,11.18
2024-02-14T09:47:00.649Z,10.88
2024-02-14T09:49:31.924Z,11.88
2024-02-14T09:52:04.488Z,11.07
2024-02-14T09:54:37.321Z,10.77
2024-02-14T09:57:06.722Z,11.60
2024-02-14T09:59:38.567Z,11.52
2024-02-14T10:02:07.732Z,11.93
2024-02-14T10:04:37.751Z,11.30
2024-02-14T10:07:07.461Z,10.68
2024-02-14T10:09:46.844Z,11.75
2024-02-14T10:12:15.930Z,11.70
2024-02-14T10:14:47.151Z,11.25
2024-02-14T10:17:21.233Z,11.10
2024-02-14T10:20:00.790Z,11.27
2024-02-14T10:22:36.513Z,10.88
2024-02-14T10:25:06.242Z,11.13
2024-02-14T10:27:35.532Z,10.77
2024-02-14T10:30:11.589Z,10.43
2024-02-14T10:35:13.547Z,9.82
2024-02-14T10:37:42.759Z,10.40
2024-02-14T10:40:12.090Z,10.40
2024-02-14T10:42:41.158Z,10.77
2024-02-14T10:45:12.700Z,10.63
2024-02-14T10:47:46.382Z,11.27
2024-02-14T10:50:16.440Z,10.80
2024-02-14T10:52:46.847Z,10.00
2024-02-14T10:55:17.827Z,10.60
2024-02-14T10:57:48.045Z,10.85
2024-02-14T11:00:20.718Z,11.00
2024-02-14T11:02:51.103Z,11.18
2024-02-14T11:05:26.038Z,11.02
2024-02-14T11:07:55.075Z,11.38
2024-02-14T11:10:25.104Z,12.10
2024-02-14T11:12:57.151Z,11.25
2024-02-14T11:15:27.992Z,10.88
2024-02-14T11:18:07.299Z,12.10
2024-02-14T11:20:37.983Z,11.90
2024-02-14T11:23:13.635Z,12.18
2024-02-14T11:25:42.744Z,12.32
2024-02-14T11:28:18.431Z,12.15
2024-02-14T11:30:50.097Z,11.98
2024-02-14T11:33:20.413Z,11.90
2024-02-14T11:36:00.787Z,11.70
2024-02-14T11:38:31.806Z,11.93
2024-02-14T11:41:01.016Z,11.90
2024-02-14T11:43:30.012Z,11.52
2024-02-14T11:46:00.833Z,11.57
2024-02-14T11:48:31.709Z,11.25
2024-02-14T11:51:00.978Z,10.90
2024-02-14T11:53:30.289Z,10.63
2024-02-14T11:55:59.488Z,10.85
2024-02-14T11:58:28.499Z,10.45
2024-02-14T12:00:57.633Z,10.38
2024-02-14T12:03:29.684Z,10.15
2024-02-14T12:05:59.440Z,10.60
2024-02-14T12:08:28.964Z,10.10
2024-02-14T12:10:58.181Z,11.18
2024-02-14T12:13:27.300Z,9.95
2024-02-14T12:15:56.992Z,10.13
2024-02-14T12:18:27.983Z,10.27
2024-02-14T12:21:09.692Z,10.82
2024-02-14T12:23:39.041Z,10.32
2024-02-14T12:26:08.077Z,10.85
2024-02-14T12:28:38.713Z,10.10
2024-02-14T12:31:07.778Z,11.00
2024-02-14T12:33:38.877Z,9.85
2024-02-14T12:36:09.321Z,10.25
2024-02-14T12:38:38.462Z,10.60
2024-02-14T12:41:07.662Z,10.40
2024-02-14T12:43:36.716Z,11.18
2024-02-14T12:46:06.448Z,10.30
2024-02-14T12:48:35.765Z,10.55
2024-02-14T12:51:07.269Z,10.88
2024-02-14T12:53:36.465Z,10.63
2024-02-14T12:56:06.681Z,10.73
2024-02-14T12:58:35.807Z,10.52
2024-02-14T13:01:07.822Z,11.07
2024-02-14T13:03:38.197Z,10.98
2024-02-14T13:06:09.281Z,10.18
2024-02-14T13:08:40.680Z,10.43
2024-02-14T13:11:12.518Z,10.82
2024-02-14T13:13:43.942Z,10.90
2024-02-14T13:16:12.998Z,10.90
2024-02-14T13:18:42.160Z,9.73
2024-02-14T13:21:13.096Z,10.38
2024-02-14T13:23:42.596Z,10.50
2024-02-14T13:26:11.833Z,10.27
2024-02-14T13:28:42.572Z,10.38
2024-02-14T13:31:12.840Z,9.25
2024-02-14T13:33:41.967Z,10.20
2024-02-14T13:36:12.935Z,10.38
2024-02-14T13:38:41.976Z,9.68
2024-02-14T13:41:11.017Z,9.85
2024-02-14T13:43:40.139Z,9.73
2024-02-14T13:46:11.308Z,10.20
2024-02-14T13:48:40.480Z,9.50
2024-02-14T13:51:10.927Z,10.02
2024-02-14T13:53:41.664Z,9.80
2024-02-14T13:56:10.761Z,9.90
2024-02-14T13:58:40.309Z,9.68
2024-02-14T14:01:09.333Z,8.90
2024-02-14T14:03:38.700Z,9.02
2024-02-14T14:06:09.872Z,8.85
2024-02-14T14:08:40.729Z,9.57
2024-02-14T14:11:10.794Z,9.60
2024-02-14T14:13:39.790Z,9.35
2024-02-14T14:16:09.078Z,8.50
2024-02-14T14:18:38.629Z,8.93
2024-02-14T14:21:08.037Z,9.35
2024-02-14T14:23:37.315Z,8.77
2024-02-14T14:26:08.694Z,8.55
2024-02-14T14:28:37.734Z,8.38
2024-02-14T14:31:06.817Z,8.40
2024-02-14T14:33:35.960Z,8.82
2024-02-14T14:36:05.586Z,8.90
2024-02-14T14:38:34.724Z,9.43
2024-02-14T14:41:04.042Z,8.30
2024-02-14T14:43:34.709Z,8.00
2024-02-14T14:46:03.697Z,8.15
2024-02-14T14:48:32.899Z,8.68
2024-02-14T14:51:02.030Z,8.25
2024-02-14T14:53:31.771Z,8.23
2024-02-14T14:56:01.944Z,7.47
2024-02-14T14:58:35.278Z,7.80
2024-02-14T15:01:06.815Z,7.88
2024-02-14T15:03:35.963Z,7.85
2024-02-14T15:06:05.215Z,8.75
2024-02-14T15:08:34.677Z,7.30
2024-02-14T15:11:04.744Z,8.15
2024-02-14T15:13:33.988Z,8.30
2024-02-14T15:16:06.330Z,7.40
2024-02-14T15:18:35.470Z,8.73
2024-02-14T15:21:09.792Z,8.40
2024-02-14T15:23:39.989Z,8.35
2024-02-14T15:26:14.007Z,7.82
2024-02-14T15:28:43.571Z,9.07
2024-02-14T15:31:32.338Z,9.10
2024-02-14T15:34:01.528Z,20.83
2024-02-14T15:36:30.866Z,10.95
2024-02-14T15:39:00.041Z,9.07
2024-02-14T15:41:29.649Z,8.30
2024-02-14T15:43:58.686Z,8.25
2024-02-14T15:46:29.430Z,9.50
2024-02-14T15:48:59.334Z,8.95
2024-02-14T15:51:29.173Z,8.80
2024-02-14T15:53:58.290Z,8.63
2024-02-14T15:56:28.511Z,7.95
2024-02-14T15:58:58.362Z,7.85
2024-02-14T16:01:30.034Z,8.15
2024-02-14T16:03:59.193Z,7.70
2024-02-14T16:06:28.456Z,8.20
2024-02-14T16:09:00.620Z,7.88
2024-02-14T16:11:32.884Z,7.78
2024-02-14T16:14:01.901Z,8.68
2024-02-14T16:16:33.703Z,8.88
2024-02-14T16:19:02.911Z,9.55
2024-02-14T16:21:32.058Z,8.93
2024-02-14T16:24:01.141Z,8.10
2024-02-14T16:26:31.500Z,8.90
2024-02-14T16:29:00.803Z,8.20
2024-02-14T16:31:31.502Z,8.20
2024-02-14T16:34:00.713Z,8.80
2024-02-14T16:36:29.988Z,8.32
2024-02-14T16:38:59.183Z,8.68
2024-02-14T16:41:28.224Z,8.93
2024-02-14T16:43:57.245Z,8.68
2024-02-14T16:46:26.473Z,9.70
2024-02-14T16:48:57.389Z,9.48
2024-02-14T16:51:27.055Z,9.45
2024-02-14T16:53:57.229Z,9.23
2024-02-14T16:56:26.795Z,10.98
2024-02-14T16:58:55.872Z,11.23
2024-02-14T17:01:26.881Z,10.23
2024-02-14T17:04:05.165Z,11.18
2024-02-14T17:06:35.350Z,11.57
2024-02-14T17:09:05.252Z,10.75
2024-02-14T17:11:34.352Z,12.48
2024-02-14T17:14:05.560Z,11.88
2024-02-14T17:16:34.588Z,11.15
2024-02-14T17:19:07.077Z,10.90
2024-02-14T17:21:36.224Z,11.27
2024-02-14T17:24:05.532Z,11.23
2024-02-14T17:26:59.914Z,9.85
2024-02-14T17:29:29.029Z,9.80
2024-02-14T17:31:58.882Z,10.77
2024-02-14T17:34:32.927Z,11.30
2024-02-14T17:37:01.962Z,11.73
2024-02-14T17:39:30.963Z,11.80
2024-02-14T17:42:00.052Z,11.60
2024-02-14T17:44:29.621Z,11.45
2024-02-14T17:46:58.650Z,10.73
2024-02-14T17:49:52.029Z,12.77
2024-02-14T17:52:22.226Z,10.68
2024-02-14T17:54:52.869Z,11.68
2024-02-14T17:57:30.900Z,11.75
2024-02-14T18:00:01.004Z,10.18
2024-02-14T18:02:30.059Z,11.50
2024-02-14T18:05:00.980Z,10.10
2024-02-14T18:07:30.000Z,10.80
2024-02-14T18:09:59.084Z,11.73
2024-02-14T18:12:28.312Z,10.52
2024-02-14T18:14:59.030Z,11.63
2024-02-14T18:17:28.156Z,11.05
2024-02-14T18:19:57.271Z,11.05
2024-02-14T18:22:28.060Z,11.43
2024-02-14T18:24:57.642Z,10.75
2024-02-14T18:27:29.651Z,10.60
2024-02-14T18:29:58.687Z,10.30
2024-02-14T18:32:27.886Z,9.30
2024-02-14T18:34:57.167Z,8.82
2024-02-14T18:37:28.191Z,9.70
2024-02-14T18:39:59.012Z,9.63
2024-02-14T18:42:28.008Z,9.93
2024-02-14T18:44:57.029Z,8.90
2024-02-14T18:47:26.563Z,7.95
2024-02-14T18:49:55.678Z,8.55
2024-02-14T18:52:24.729Z,8.15
2024-02-14T18:54:55.378Z,8.27
2024-02-14T18:57:24.571Z,8.43
2024-02-14T18:59:54.842Z,8.38
2024-02-14T19:02:23.881Z,8.13
2024-02-14T19:04:53.791Z,9.23
2024-02-14T19:07:22.862Z,8.10
2024-02-14T19:09:51.945Z,8.13
2024-02-14T19:12:22.670Z,8.93
2024-02-14T19:14:52.338Z,8.35
2024-02-14T19:17:21.348Z,8.52
2024-02-14T19:19:50.373Z,8.20
2024-02-14T19:22:19.393Z,7.78
2024-02-14T19:24:48.366Z,8.25
2024-02-14T19:27:17.415Z,8.30
2024-02-14T19:29:48.167Z,7.97
2024-02-14T19:32:17.255Z,7.97
2024-02-14T19:34:46.824Z,8.93
2024-02-14T19:37:18.945Z,8.93
2024-02-14T19:39:47.979Z,9.43
2024-02-14T19:42:17.063Z,9.40
2024-02-14T19:44:47.762Z,9.18
2024-02-14T19:47:17.655Z,9.85
2024-02-14T19:49:48.408Z,8.43
2024-02-14T19:52:17.475Z,8.65
2024-02-14T19:54:46.467Z,9.18
2024-02-14T19:57:15.586Z,9.38
2024-02-14T19:59:44.703Z,9.15
2024-02-14T20:02:15.349Z,8.93
2024-02-14T20:04:45.941Z,9.02
2024-02-14T20:07:15.078Z,9.25
2024-02-14T20:09:44.178Z,8.55
2024-02-14T20:12:14.179Z,9.68
2024-02-14T20:14:46.436Z,9.13
2024-02-14T20:17:17.637Z,8.30
2024-02-14T20:19:46.809Z,9.05
2024-02-14T20:22:15.958Z,9.75
2024-02-14T20:24:45.049Z,10.32
2024-02-14T20:27:14.245Z,10.18
2024-02-14T20:29:45.340Z,9.93
2024-02-14T20:32:17.509Z,10.35
2024-02-14T20:34:46.690Z,10.48
2024-02-14T20:37:24.504Z,10.95
2024-02-14T20:39:53.538Z,11.15
2024-02-14T20:42:22.622Z,10.20
2024-02-14T20:44:51.672Z,10.60
2024-02-14T20:47:22.523Z,13.15
2024-02-14T20:49:51.562Z,11.82
2024-02-14T20:52:21.487Z,13.15
2024-02-14T20:54:50.504Z,12.23
2024-02-14T20:57:19.582Z,11.63
2024-02-14T20:59:49.355Z,11.15
2024-02-14T21:02:19.508Z,11.20
2024-02-14T21:04:50.378Z,12.05
2024-02-14T21:07:19.603Z,12.70
2024-02-14T21:09:48.675Z,10.98
2024-02-14T21:12:19.771Z,11.68
2024-02-14T21:14:49.329Z,12.50
2024-02-14T21:17:18.480Z,14.57
2024-02-14T21:19:49.137Z,11.30
2024-02-14T21:22:18.175Z,13.38
2024-02-14T21:24:47.228Z,12.48
2024-02-14T21:27:17.271Z,12.00
2024-02-14T21:29:46.322Z,13.07
2024-02-14T21:32:16.411Z,11.68
2024-02-14T21:34:45.600Z,11.13
2024-02-14T21:37:16.248Z,10.77
2024-02-14T21:39:45.276Z,9.85
2024-02-14T21:42:14.310Z,11.10
2024-02-14T21:44:44.323Z,12.60
2024-02-14T21:47:13.413Z,12.43
2024-02-14T21:49:44.142Z,12.45
2024-02-14T21:52:42.272Z,11.93
2024-02-14T21:55:13.395Z,13.27
2024-02-14T21:57:42.528Z,13.60
2024-02-14T22:00:14.174Z,12.50
2024-02-14T22:02:43.679Z,11.27
2024-02-14T22:05:13.916Z,12.80
2024-02-14T22:07:43.066Z,12.50
2024-02-14T22:10:14.039Z,13.05
2024-02-14T22:12:43.358Z,12.95
2024-02-14T22:15:13.700Z,13.52
2024-02-14T22:17:43.360Z,13.85
2024-02-14T22:20:18.604Z,13.90
2024-02-14T22:22:48.788Z,14.10
2024-02-14T22:25:21.274Z,13.88
2024-02-14T22:27:50.310Z,13.07
2024-02-14T22:30:19.639Z,11.23
2024-02-14T22:32:49.087Z,13.25
2024-02-14T22:35:19.628Z,14.20
2024-02-14T22:37:49.020Z,14.23
2024-02-14T22:40:20.655Z,12.90
2024-02-14T22:42:49.679Z,12.80
2024-02-14T22:45:18.670Z,14.23
2024-02-14T22:47:47.907Z,13.70
2024-02-14T22:50:16.938Z,14.05
2024-02-14T22:52:45.925Z,13.40
2024-02-14T22:55:15.053Z,14.18
2024-02-14T22:57:45.693Z,14.45
2024-02-14T23:00:24.429Z,14.13
2024-02-14T23:02:53.533Z,14.80
2024-02-14T23:05:22.588Z,14.30
2024-02-14T23:07:52.214Z,15.20
2024-02-14T23:10:22.505Z,13.98
2024-02-14T23:12:53.174Z,15.95
2024-02-14T23:15:22.432Z,14.57
2024-02-14T23:17:52.584Z,15.18
2024-02-14T23:20:21.731Z,14.15
2024-02-14T23:22:50.938Z,13.63
2024-02-14T23:25:19.917Z,15.52
2024-02-14T23:27:49.486Z,15.18
2024-02-14T23:30:22.264Z,13.85
2024-02-14T23:32:51.666Z,13.35
2024-02-14T23:35:20.876Z,14.10
2024-02-14T23:37:50.149Z,14.68
2024-02-14T23:40:19.311Z,14.05
2024-02-14T23:42:48.598Z,14.02
2024-02-14T23:45:20.510Z,13.40
2024-02-14T23:47:49.700Z,14.30
2024-02-14T23:50:19.708Z,13.25
2024-02-14T23:52:49.467Z,13.82
2024-02-14T23:55:22.426Z,14.75
2024-02-14T23:57:51.722Z,14.65
